Time;durP1;ratioP1;P1;durP2;ratioP2;P2;SDS_P1;SDS_P2;PMS_P1;PMS_P2;Temp;Humidity;BMP_temperature;BMP_pressure;BME280_temperature;BME280_humidity;BME280_pressure;Samples;Min_cycle;Max_cycle;Signal;HPM_P1;HPM_P2
2021/05/18 00:01:00;;;;;;;3.83;2.60;;;;;;;15.92;71.94;99137.14;125141;1099;106554;-79
2021/05/18 00:03:30;;;;;;;3.50;2.60;;;;;;;15.85;71.77;99144.25;125137;1099;103944;-79
2021/05/18 00:06:03;;;;;;;2.80;1.93;;;;;;;15.78;72.08;99145.17;125137;1099;104359;-80
2021/05/18 00:11:42;;;;;;;2.17;2.03;;;;;;;15.73;71.68;99147.82;125159;1099;104134;-79
2021/05/18 00:14:06;;;;;;;2.00;1.83;;;;;;;15.70;71.93;99133.75;125179;1099;103971;-79
2021/05/18 00:16:36;;;;;;;4.10;1.93;;;;;;;15.68;72.15;99141.70;125162;1100;104015;-80
2021/05/18 00:19:07;;;;;;;4.27;2.00;;;;;;;15.71;71.53;99130.23;125173;1099;104117;-80
2021/05/18 00:21:38;;;;;;;3.37;2.10;;;;;;;15.74;71.87;99139.00;125158;1099;104024;-80
2021/05/18 00:24:10;;;;;;;3.80;1.93;;;;;;;15.73;71.70;99137.23;125122;1099;103922;-79
2021/05/18 00:26:41;;;;;;;4.30;1.90;;;;;;;15.67;71.58;99137.28;125242;1099;104024;-79
2021/05/18 00:29:11;;;;;;;2.83;1.87;;;;;;;15.63;71.56;99135.56;125243;1099;104379;-80
2021/05/18 00:31:42;;;;;;;3.40;1.75;;;;;;;15.62;71.89;99125.87;125131;1100;104073;-79
2021/05/18 00:34:15;;;;;;;3.40;1.90;;;;;;;15.64;71.85;99129.38;125204;1099;103938;-79
2021/05/18 00:36:45;;;;;;;4.30;1.90;;;;;;;15.61;71.65;99125.00;125090;1099;103970;-79
2021/05/18 00:39:19;;;;;;;3.07;1.73;;;;;;;15.64;71.98;99122.34;125234;1099;103990;-80
2021/05/18 00:41:52;;;;;;;4.60;1.60;;;;;;;15.60;72.13;99119.72;125113;1102;103958;-79
2021/05/18 00:44:22;;;;;;;4.40;1.90;;;;;;;15.59;71.49;99116.18;125165;1099;103947;-79
2021/05/18 00:46:52;;;;;;;1.50;1.40;;;;;;;15.59;71.73;99105.61;125131;1100;103922;-81
2021/05/18 00:49:23;;;;;;;2.10;1.80;;;;;;;15.62;72.02;99110.88;125123;1099;103973;-80
2021/05/18 00:51:54;;;;;;;3.23;2.10;;;;;;;15.63;71.60;99107.35;126017;1099;103937;-80
2021/05/18 00:54:27;;;;;;;3.53;1.93;;;;;;;15.62;72.54;99108.23;125182;1099;104009;-79
2021/05/18 00:59:45;;;;;;;4.80;1.95;;;;;;;15.60;71.75;99090.64;126260;1098;103923;-79
2021/05/18 01:02:19;;;;;;;1.97;1.77;;;;;;;15.56;71.90;99097.70;125132;1099;103935;-80
2021/05/18 01:05:06;;;;;;;4.00;2.20;;;;;;;15.51;72.46;99088.92;125166;1099;103929;-79
2021/05/18 01:07:37;;;;;;;2.90;2.10;;;;;;;15.45;71.62;99088.97;125070;1099;104361;-79
2021/05/18 01:10:09;;;;;;;2.13;1.83;;;;;;;15.42;72.52;99084.56;125188;1098;103951;-80
2021/05/18 01:12:39;;;;;;;4.23;2.20;;;;;;;15.37;72.17;99086.37;125230;1099;104021;-79
2021/05/18 01:15:12;;;;;;;2.33;2.13;;;;;;;15.32;72.60;99085.53;125098;1099;103947;-79
2021/05/18 01:17:43;;;;;;;3.45;2.22;;;;;;;15.28;71.97;99076.73;125171;1099;105104;-79
2021/05/18 01:20:16;;;;;;;2.40;2.00;;;;;;;15.24;72.20;99067.08;125154;1102;104393;-80
2021/05/18 01:22:48;;;;;;;3.00;2.22;;;;;;;15.18;72.71;99072.41;125126;1098;103996;-81
2021/05/18 01:25:24;;;;;;;4.17;2.87;;;;;;;15.14;72.93;99065.37;125164;1099;103958;-80
2021/05/18 01:27:59;;;;;;;4.60;2.50;;;;;;;15.15;72.98;99063.63;126233;1099;103936;-79
2021/05/18 01:30:33;;;;;;;2.50;2.30;;;;;;;15.16;72.78;99065.36;126248;1099;103941;-80
2021/05/18 01:33:03;;;;;;;7.90;2.80;;;;;;;15.17;72.24;99065.35;125150;1099;118438;-79
2021/05/18 01:35:34;;;;;;;5.73;2.50;;;;;;;15.15;73.00;99056.56;125136;1099;103925;-80
2021/05/18 01:38:11;;;;;;;3.87;2.70;;;;;;;15.14;72.04;99059.22;125109;1099;103922;-80
2021/05/18 01:43:50;;;;;;;4.93;2.70;;;;;;;15.16;72.44;99058.33;125159;1099;106600;-79
2021/05/18 01:46:34;;;;;;;5.23;2.70;;;;;;;15.16;72.23;99057.44;125234;1099;103928;-80
2021/05/18 01:49:12;;;;;;;4.57;2.70;;;;;;;15.15;72.17;99056.56;126257;1099;103935;-79
2021/05/18 01:51:55;;;;;;;3.43;2.50;;;;;;;15.16;73.04;99052.15;126053;1099;104003;-79
2021/05/18 01:54:29;;;;;;;4.17;2.67;;;;;;;15.14;72.97;99049.52;125180;1099;103931;-79
2021/05/18 01:59:56;;;;;;;3.10;2.80;;;;;;;15.15;73.03;99039.84;125121;1102;103969;-78
2021/05/18 02:02:31;;;;;;;4.10;2.80;;;;;;;15.17;72.96;99032.78;125494;1099;101559;-80
2021/05/18 02:05:10;;;;;;;6.53;2.80;;;;;;;15.16;73.11;99037.20;126254;1099;103971;-79
2021/05/18 02:07:51;;;;;;;5.93;3.17;;;;;;;15.09;72.58;99044.26;126263;1099;101871;-80
2021/05/18 02:10:22;;;;;;;7.93;3.20;;;;;;;15.05;72.46;99041.64;126222;1099;104040;-80
2021/05/18 02:13:10;;;;;;;5.27;3.03;;;;;;;15.01;72.27;99043.44;125612;1099;103981;-80
2021/05/18 02:15:47;;;;;;;6.03;3.27;;;;;;;14.99;72.42;99050.50;125180;1099;104022;-80
2021/05/18 02:18:33;;;;;;;5.50;3.40;;;;;;;15.01;72.34;99045.21;125137;1102;104098;-81
2021/05/18 02:21:34;;;;;;;4.50;3.20;;;;;;;15.02;72.49;99044.30;125270;1102;104050;-81
2021/05/18 02:26:51;;;;;;;6.40;3.55;;;;;;;15.06;73.38;99053.98;125239;1102;103948;-79
2021/05/18 02:29:27;;;;;;;5.23;3.40;;;;;;;15.01;72.86;99061.92;125202;1102;104092;-80
2021/05/18 02:31:59;;;;;;;4.33;3.20;;;;;;;14.99;72.88;99055.78;125250;1102;103970;-80
2021/05/18 02:34:45;;;;;;;6.23;3.77;;;;;;;14.95;73.07;99059.31;125158;1101;111803;-79
2021/05/18 02:37:17;;;;;;;7.07;3.60;;;;;;;14.92;72.61;99052.27;125287;1102;104091;-79
2021/05/18 02:39:49;;;;;;;7.80;3.57;;;;;;;14.91;72.46;99047.00;125254;1102;104133;-80
2021/05/18 02:42:20;;;;;;;6.80;3.60;;;;;;;14.90;73.07;99061.98;125134;1102;104091;-79
2021/05/18 02:44:57;;;;;;;9.13;3.90;;;;;;;14.90;73.51;99047.91;125175;1102;103963;-80
2021/05/18 02:50:14;;;;;;;8.53;3.73;;;;;;;14.95;72.66;99051.39;125254;1102;104027;-79
2021/05/18 02:52:44;;;;;;;7.43;4.10;;;;;;;14.98;73.36;99061.94;125148;1100;104434;-79
2021/05/18 02:55:21;;;;;;;6.90;3.70;;;;;;;15.01;72.44;99059.28;125266;1099;108663;-80
2021/05/18 02:57:54;;;;;;;5.10;3.90;;;;;;;15.04;72.78;99072.48;126309;1099;103954;-80
2021/05/18 03:00:25;;;;;;;7.00;3.90;;;;;;;15.07;72.91;99055.75;125321;1099;103938;-79
2021/05/18 03:02:58;;;;;;;5.37;3.73;;;;;;;15.02;73.46;99063.69;126231;1098;104065;-79
2021/05/18 03:05:31;;;;;;;10.00;3.70;;;;;;;15.02;72.64;99058.41;125056;1099;119347;-80
2021/05/18 03:08:06;;;;;;;9.67;3.77;;;;;;;15.02;72.52;99057.52;125149;1099;103967;-79
2021/05/18 03:10:37;;;;;;;8.47;4.00;;;;;;;15.02;73.55;99052.23;125155;1099;103950;-80
2021/05/18 03:13:07;;;;;;;5.93;3.60;;;;;;;15.04;73.13;99056.63;125173;1099;103926;-79
2021/05/18 03:15:40;;;;;;;7.93;4.07;;;;;;;15.05;72.59;99063.67;125214;1099;103957;-79
2021/05/18 03:18:11;;;;;;;5.83;4.27;;;;;;;15.10;72.70;99056.59;125233;1099;104401;-79
2021/05/18 03:20:41;;;;;;;8.13;4.10;;;;;;;15.09;72.71;99054.83;125162;1099;103986;-79
2021/05/18 03:23:12;;;;;;;9.30;4.77;;;;;;;15.12;73.34;99053.08;125200;1102;104018;-79
2021/05/18 03:25:42;;;;;;;10.20;4.75;;;;;;;15.21;73.46;99064.45;126050;1099;103938;-80
2021/05/18 03:28:13;;;;;;;8.63;4.90;;;;;;;15.34;73.40;99070.53;125337;1100;103912;-80
2021/05/18 03:34:25;;;;;;;8.47;4.40;;;;;;;15.47;73.34;99066.03;126185;1098;104008;-80
2021/05/18 03:36:45;;;;;;;8.77;4.40;;;;;;;15.70;73.36;99063.22;125155;1102;104017;-79
2021/05/18 03:39:15;;;;;;;9.03;4.67;;;;;;;15.83;72.98;99063.16;125215;1102;104079;-80
2021/05/18 03:41:54;;;;;;;10.00;4.60;;;;;;;15.88;72.43;99058.69;125137;1102;103957;-80
2021/05/18 03:44:38;;;;;;;9.45;4.75;;;;;;;15.89;73.25;99063.97;125190;1102;103961;-80
2021/05/18 03:52:42;;;;;;;7.10;4.30;;;;;;;15.88;72.63;99056.05;125187;1102;103964;-79
2021/05/18 04:03:21;;;;;;;7.90;4.83;;;;;;;15.96;72.45;99051.59;125225;1102;103941;-79
2021/05/18 04:19:18;;;;;;;8.13;5.20;;;;;;;16.26;72.87;99042.45;125091;1102;104448;-79
2021/05/18 04:21:57;;;;;;;7.90;4.10;;;;;;;16.30;73.09;99044.18;125188;1099;103915;-78
2021/05/18 04:51:55;;;;;;;10.67;5.43;;;;;;;16.52;73.09;99038.64;125086;1099;104363;-77
2021/05/18 05:00:01;;;;;;;13.37;6.00;;;;;;;16.58;72.51;99038.57;126050;1099;103919;-77
2021/05/18 05:02:51;;;;;;;12.57;6.13;;;;;;;16.62;72.98;99037.62;125891;1099;103055;-78
2021/05/18 05:08:08;;;;;;;13.33;5.93;;;;;;;16.82;72.59;99039.16;125053;1099;109006;-77
2021/05/18 05:16:06;;;;;;;13.47;5.80;;;;;;;17.04;72.47;99031.81;125066;1099;103950;-78
2021/05/18 05:18:36;;;;;;;10.53;5.87;;;;;;;17.12;72.67;99024.63;124960;1099;103967;-78
2021/05/18 05:21:10;;;;;;;12.73;5.57;;;;;;;17.25;72.16;99020.91;125089;1099;104057;-78
2021/05/18 05:23:40;;;;;;;11.60;6.00;;;;;;;17.35;72.51;99020.77;125239;1100;103880;-78
2021/05/18 05:26:10;;;;;;;14.67;6.50;;;;;;;17.46;72.59;99016.16;125241;1099;103951;-78
2021/05/18 05:28:41;;;;;;;12.80;6.47;;;;;;;17.54;72.43;99016.91;125281;1099;103922;-78
2021/05/18 05:31:15;;;;;;;18.90;7.07;;;;;;;17.59;72.30;99022.12;126076;1099;103974;-78
2021/05/18 05:33:46;;;;;;;10.53;5.70;;;;;;;17.66;72.28;99033.54;125865;1099;104690;-78
2021/05/18 05:36:16;;;;;;;15.03;5.73;;;;;;;17.69;72.34;99030.84;125025;1099;103922;-80
2021/05/18 05:38:50;;;;;;;12.20;6.00;;;;;;;17.72;71.94;99029.00;125715;1099;111868;-79
2021/05/18 05:41:19;;;;;;;;;;;;;;;17.76;72.40;99032.47;124976;1099;103974;-79
2021/05/18 05:43:49;;;;;;;8.07;5.27;;;;;;;17.79;72.41;99022.70;125041;1102;103974;-77
2021/05/18 05:46:23;;;;;;;9.57;5.17;;;;;;;17.87;72.12;99019.02;125063;1102;104113;-78
2021/05/18 05:48:54;;;;;;;9.27;5.43;;;;;;;17.90;72.03;99024.30;124985;1102;104075;-78
2021/05/18 05:51:27;;;;;;;12.90;4.90;;;;;;;17.94;71.85;99018.91;125096;1102;103983;-79
2021/05/18 05:54:07;;;;;;;10.57;5.10;;;;;;;18.00;71.74;99011.73;125118;1102;104172;-81
2021/05/18 05:56:43;;;;;;;8.60;5.47;;;;;;;17.97;71.91;99015.34;125529;1102;103906;-76
2021/05/18 05:59:56;;;;;;;12.93;6.13;;;;;;;17.95;71.81;99002.09;126240;1102;108964;-78
2021/05/18 06:02:35;;;;;;;12.67;5.47;;;;;;;17.95;71.93;98996.79;125577;1102;102691;-78
2021/05/18 06:05:09;;;;;;;10.10;5.70;;;;;;;17.91;72.01;98989.78;125032;1102;104158;-78
2021/05/18 06:07:40;;;;;;;16.97;7.20;;;;;;;17.90;71.63;98998.66;125165;1102;103941;-78
2021/05/18 06:10:14;;;;;;;12.60;6.53;;;;;;;17.84;71.63;98996.09;125003;1102;103934;-77
2021/05/18 06:12:54;;;;;;;12.93;7.17;;;;;;;17.81;71.67;98995.24;125008;1102;103951;-78
2021/05/18 06:41:56;;;;;;;11.25;6.65;;;;;;;17.88;71.96;98970.36;125025;1102;104112;-79
2021/05/18 06:47:31;;;;;;;11.27;6.77;;;;;;;17.90;72.23;98968.58;125082;1102;104025;-77
2021/05/18 06:50:22;;;;;;;14.33;7.50;;;;;;;17.94;72.23;98964.97;124977;1102;104146;-78
2021/05/18 06:52:55;;;;;;;11.70;6.77;;;;;;;17.93;72.07;98964.08;125098;1102;103278;-77
2021/05/18 06:55:28;;;;;;;13.10;7.37;;;;;;;17.92;71.91;98964.10;125029;1102;104102;-76
2021/05/18 06:58:04;;;;;;;14.77;7.53;;;;;;;17.89;72.00;98965.06;125130;1102;103980;-79
2021/05/18 07:00:46;;;;;;;15.70;8.13;;;;;;;17.93;72.15;98956.12;125094;1102;103958;-78
2021/05/18 07:03:21;;;;;;;13.03;7.00;;;;;;;18.02;72.09;98952.42;125105;1099;104076;-77
2021/05/18 07:05:58;;;;;;;15.10;7.53;;;;;;;18.09;71.94;98954.06;125068;1099;103954;-78
2021/05/18 07:11:29;;;;;;;14.63;7.03;;;;;;;18.21;71.98;98960.03;125037;1099;104092;-78
2021/05/18 07:14:12;;;;;;;13.63;7.40;;;;;;;18.23;72.08;98953.80;126000;1102;101569;-78
2021/05/18 07:16:45;;;;;;;12.77;7.17;;;;;;;18.33;71.72;98944.72;125106;1102;103932;-78
2021/05/18 07:19:19;;;;;;;14.57;7.63;;;;;;;18.44;71.63;98940.97;124877;1102;103954;-79
2021/05/18 07:21:56;;;;;;;13.53;7.40;;;;;;;18.43;71.61;98939.21;124656;1106;103958;-80
2021/05/18 07:24:30;;;;;;;14.40;7.65;;;;;;;18.43;71.97;98945.42;124821;1102;104104;-78
2021/05/18 07:27:26;;;;;;;16.67;8.53;;;;;;;18.41;71.72;98941.90;124831;1105;104027;-79
2021/05/18 07:30:02;;;;;;;14.60;8.77;;;;;;;18.31;71.58;98943.88;124746;1106;103954;-80
2021/05/18 07:32:37;;;;;;;15.47;7.90;;;;;;;18.17;71.53;98951.27;125029;1103;104115;-79
2021/05/18 07:35:15;;;;;;;14.53;7.77;;;;;;;18.07;71.58;98947.03;125018;1099;105247;-78
2021/05/18 07:37:48;;;;;;;15.35;8.55;;;;;;;18.01;71.61;98952.45;125432;1099;103979;-79
2021/05/18 07:40:33;;;;;;;13.43;8.27;;;;;;;17.95;71.57;98953.44;125563;1099;103998;-79
2021/05/18 07:43:18;;;;;;;14.23;8.67;;;;;;;17.92;71.65;98953.49;125005;1099;105756;-76
2021/05/18 07:46:16;;;;;;;16.10;8.73;;;;;;;17.93;71.72;98945.50;125376;1100;103207;-74
2021/05/18 07:49:46;;;;;;;16.23;8.40;;;;;;;18.00;71.64;98945.39;125007;1099;104079;-74
2021/05/18 08:02:17;;;;;;;11.00;7.40;;;;;;;17.96;71.48;98945.44;124940;1099;103942;-77
2021/05/18 08:06:53;;;;;;;14.30;8.50;;;;;;;17.88;71.85;98947.38;125010;1099;103967;-78
2021/05/18 08:09:27;;;;;;;17.23;8.53;;;;;;;17.89;72.24;98938.52;124998;1099;104078;-77
2021/05/18 08:12:05;;;;;;;13.97;8.10;;;;;;;17.91;71.62;98943.80;125221;1099;103915;-78
2021/05/18 08:14:47;;;;;;;14.73;8.47;;;;;;;17.86;71.50;98935.89;125172;1102;102024;-75
2021/05/18 08:17:22;;;;;;;16.10;9.20;;;;;;;17.83;71.42;98938.61;125194;1102;108273;-78
2021/05/18 10:34:45;;;;;;;8.47;2.10;;;;;;;21.87;64.94;98910.94;125126;1099;104012;-79
2021/05/18 10:37:37;;;;;;;5.13;2.33;;;;;;;22.03;64.27;98906.80;125021;1099;104040;-78
2021/05/18 10:40:34;;;;;;;11.10;2.30;;;;;;;22.10;64.53;98909.25;125870;1099;103748;-79
2021/05/18 10:43:09;;;;;;;4.37;1.80;;;;;;;22.09;64.27;98905.69;125477;1099;103952;-78
2021/05/18 10:46:07;;;;;;;3.27;1.43;;;;;;;21.93;64.06;98912.53;125036;1102;104056;-79
2021/05/18 10:48:55;;;;;;;1.70;1.23;;;;;;;21.70;63.74;98919.55;125073;1102;104101;-78
2021/05/18 10:51:39;;;;;;;9.73;1.53;;;;;;;21.47;63.20;98915.86;125068;1102;103957;-78
2021/05/18 10:54:22;;;;;;;3.87;1.50;;;;;;;21.46;63.40;98913.25;124949;1102;103961;-78
2021/05/18 10:57:14;;;;;;;6.93;1.80;;;;;;;21.62;62.48;98916.28;125176;1102;104017;-77
2021/05/18 10:59:48;;;;;;;4.73;1.50;;;;;;;21.77;62.39;98920.19;125312;1102;104038;-78
2021/05/18 11:02:36;;;;;;;2.93;1.60;;;;;;;21.92;62.93;98918.79;125231;1102;103948;-77
2021/05/18 11:05:12;;;;;;;2.27;1.90;;;;;;;22.08;62.23;98915.51;125041;1102;103939;-78
2021/05/18 11:07:47;;;;;;;1.63;1.13;;;;;;;22.16;62.29;98912.55;124926;1102;104300;-81
2021/05/18 11:11:09;;;;;;;4.43;1.50;;;;;;;22.28;61.55;98910.34;125013;1102;104101;-79
2021/05/18 11:14:17;;;;;;;1.57;1.30;;;;;;;22.21;60.94;98907.91;125740;1102;104126;-79
2021/05/18 11:17:29;;;;;;;6.60;1.30;;;;;;;22.17;60.54;98908.93;124781;1099;103998;-82
2021/05/18 11:20:47;;;;;;;6.12;1.50;;;;;;;22.19;60.26;98907.09;125016;1099;103909;-81
2021/05/18 11:23:22;;;;;;;4.97;1.40;;;;;;;22.26;60.08;98911.27;124922;1098;106476;-81
2021/05/18 11:26:07;;;;;;;1.00;0.90;;;;;;;22.34;60.17;98905.66;125015;1099;104002;-80
2021/05/18 11:28:43;;;;;;;5.05;1.45;;;;;;;22.52;59.90;98904.10;125034;1099;104405;-80
2021/05/18 11:31:21;;;;;;;0.90;0.90;;;;;;;22.68;59.81;98899.02;125275;1102;104018;-79
2021/05/18 11:34:04;;;;;;;3.40;1.00;;;;;;;22.67;59.11;98899.94;125362;1100;103922;-80
2021/05/18 11:36:41;;;;;;;3.57;1.20;;;;;;;22.65;59.64;98900.95;125333;1099;103922;-78
2021/05/18 11:39:22;;;;;;;1.37;1.10;;;;;;;22.78;59.13;98896.84;125614;1099;103910;-78
2021/05/18 11:42:13;;;;;;;3.23;1.13;;;;;;;22.93;58.71;98893.55;125163;1099;103807;-79
2021/05/18 11:51:21;;;;;;;2.43;1.27;;;;;;;23.02;57.64;98883.44;125086;1102;103982;-80
2021/05/18 11:53:55;;;;;;;3.33;0.87;;;;;;;23.17;57.86;98892.64;125283;1099;103999;-79
2021/05/18 11:56:35;;;;;;;2.57;1.13;;;;;;;23.35;57.47;98896.37;125317;1099;103922;-80
2021/05/18 11:59:08;;;;;;;6.17;1.03;;;;;;;23.17;56.76;98889.97;125188;1102;103968;-79
2021/05/18 12:01:51;;;;;;;2.90;1.30;;;;;;;22.95;56.88;98889.03;125167;1099;104063;-78
2021/05/18 12:04:28;;;;;;;5.17;1.70;;;;;;;22.73;56.58;98889.00;124940;1099;107902;-77
2021/05/18 12:07:01;;;;;;;2.93;1.00;;;;;;;22.63;56.47;98886.78;124933;1102;103915;-78
2021/05/18 12:09:35;;;;;;;2.27;0.80;;;;;;;22.59;56.81;98888.69;124937;1100;104014;-81
2021/05/18 12:12:08;;;;;;;2.17;1.07;;;;;;;22.50;55.70;98884.59;125025;1099;103913;-81
2021/05/18 12:14:47;;;;;;;1.77;0.90;;;;;;;22.42;55.99;98881.33;125017;1102;118548;-81
2021/05/18 12:17:27;;;;;;;1.73;1.00;;;;;;;22.24;56.00;98886.41;124978;1102;104265;-78
2021/05/18 12:20:03;;;;;;;3.47;0.95;;;;;;;22.30;54.91;98888.03;124961;1102;104258;-78
2021/05/18 12:22:43;;;;;;;3.05;1.20;;;;;;;22.23;54.89;98884.66;125091;1102;103970;-78
2021/05/18 12:28:28;;;;;;;2.83;0.97;;;;;;;22.08;54.05;98893.28;125592;1102;102206;-78
2021/05/18 12:31:08;;;;;;;0.90;0.70;;;;;;;22.03;54.12;98885.44;124969;1102;103998;-77
2021/05/18 12:33:48;;;;;;;1.63;0.90;;;;;;;22.01;53.98;98905.10;125002;1102;104009;-80
2021/05/18 12:36:51;;;;;;;1.95;0.88;;;;;;;22.01;53.36;98895.28;125015;1102;104140;-76
2021/05/18 12:39:24;;;;;;;4.57;1.10;;;;;;;22.01;53.48;98894.42;125348;1102;103960;-78
2021/05/18 12:41:59;;;;;;;5.97;1.10;;;;;;;21.97;53.08;98895.45;125019;1102;104008;-79
2021/05/18 12:44:32;;;;;;;2.63;1.00;;;;;;;22.02;53.54;98896.17;124812;1102;104214;-77
2021/05/18 12:47:03;;;;;;;;;;;;;;;22.02;52.84;98889.02;125041;1103;104034;-77
2021/05/18 12:49:40;;;;;;;2.70;1.10;;;;;;;22.03;53.32;98887.22;125073;1102;104152;-77
2021/05/18 12:52:22;;;;;;;3.03;1.00;;;;;;;22.00;53.39;98884.66;124944;1102;103926;-77
2021/05/18 12:55:12;;;;;;;6.20;1.30;;;;;;;22.01;53.34;98891.75;125032;1102;104053;-79
2021/05/18 12:57:54;;;;;;;3.35;1.60;;;;;;;21.97;53.32;98903.46;125033;1102;104082;-80
2021/05/18 13:00:39;;;;;;;2.43;1.40;;;;;;;21.71;53.42;98900.81;124750;1102;104070;-79
2021/05/18 13:03:29;;;;;;;3.27;1.67;;;;;;;21.45;53.88;98895.48;124919;1102;104031;-78
2021/05/18 13:06:12;;;;;;;6.20;2.00;;;;;;;21.38;53.03;98897.50;125273;1102;106456;-78
2021/05/18 13:08:45;;;;;;;6.87;1.73;;;;;;;21.35;53.40;98893.13;124929;1102;104005;-79
2021/05/18 13:12:10;;;;;;;6.08;1.70;;;;;;;21.36;53.41;98891.31;124929;1102;104040;-79
2021/05/18 13:14:12;;;;;;;6.13;1.53;;;;;;;21.33;53.39;98900.32;124878;1102;103974;-82
2021/05/18 13:16:50;;;;;;;1.93;1.30;;;;;;;21.33;53.49;98891.42;125060;1102;103925;-78
2021/05/18 13:19:26;;;;;;;4.83;1.50;;;;;;;21.42;52.99;98891.11;125069;1102;104028;-78
2021/05/18 13:22:01;;;;;;;4.27;1.80;;;;;;;21.59;53.32;98898.56;124967;1099;103995;-79
2021/05/18 13:27:18;;;;;;;2.47;1.53;;;;;;;21.70;53.22;98903.53;125095;1099;103910;-80
2021/05/18 13:29:56;;;;;;;4.10;1.33;;;;;;;21.76;53.13;98889.11;126040;1099;103925;-79
2021/05/18 13:32:30;;;;;;;4.00;1.23;;;;;;;21.83;53.16;98887.94;125330;1099;103960;-78
2021/05/18 13:35:28;;;;;;;5.00;1.10;;;;;;;21.88;52.26;98886.00;125102;1102;103913;-77
2021/05/18 13:38:06;;;;;;;3.40;1.13;;;;;;;21.95;53.17;98876.81;125136;1102;102388;-80
2021/05/18 13:40:45;;;;;;;3.80;1.10;;;;;;;22.03;52.36;98876.53;125006;1099;103915;-81
2021/05/18 13:43:21;;;;;;;2.00;1.20;;;;;;;22.05;52.29;98870.22;125105;1102;104053;-80
2021/05/18 13:45:55;;;;;;;2.83;1.27;;;;;;;22.10;52.46;98870.05;125024;1099;104016;-79
2021/05/18 13:48:26;;;;;;;1.73;1.13;;;;;;;22.07;51.72;98876.36;125135;1102;103921;-79
2021/05/18 13:50:58;;;;;;;2.93;1.20;;;;;;;21.86;51.97;98888.72;124989;1102;104111;-78
2021/05/18 13:53:28;;;;;;;4.30;1.30;;;;;;;21.60;51.70;98886.98;124852;1102;104063;-78
2021/05/18 13:56:02;;;;;;;1.67;1.50;;;;;;;21.49;51.82;98890.02;125605;1102;104012;-79
2021/05/18 13:58:34;;;;;;;10.97;3.30;;;;;;;21.47;51.90;98893.63;125085;1102;104105;-79
2021/05/18 14:01:07;;;;;;;13.97;2.07;;;;;;;21.42;52.10;98892.92;125211;1103;104060;-79
2021/05/18 14:03:40;;;;;;;4.77;1.40;;;;;;;21.32;52.25;98898.56;125125;1103;103955;-79
2021/05/18 14:06:18;;;;;;;6.40;1.97;;;;;;;21.16;51.85;98897.32;124954;1103;104484;-79
2021/05/18 14:08:58;;;;;;;3.80;1.60;;;;;;;20.95;52.46;98899.77;125177;1102;103993;-79
2021/05/18 14:11:31;;;;;;;1.97;1.40;;;;;;;20.76;51.46;98899.50;125227;1102;101576;-79
2021/05/18 14:14:02;;;;;;;4.90;1.23;;;;;;;20.55;52.16;98898.32;124752;1105;104127;-76
2021/05/18 14:16:34;;;;;;;4.30;1.40;;;;;;;20.32;52.11;98908.80;124928;1102;104134;-77
2021/05/18 14:19:09;;;;;;;5.67;1.40;;;;;;;20.10;52.27;98915.64;125119;1102;104046;-77
2021/05/18 14:21:47;;;;;;;4.03;1.23;;;;;;;19.87;51.91;98918.08;124878;1102;104104;-78
2021/05/18 14:24:23;;;;;;;4.93;1.43;;;;;;;19.66;52.63;98924.81;124784;1102;104209;-78
2021/05/18 14:26:54;;;;;;;2.95;1.40;;;;;;;19.53;52.00;98932.25;124980;1102;103961;-78
2021/05/18 14:29:31;;;;;;;1.00;0.90;;;;;;;19.41;52.12;98936.08;124842;1102;104021;-79
2021/05/18 14:32:02;;;;;;;1.07;0.83;;;;;;;19.22;52.34;98935.67;124914;1102;104046;-79
2021/05/18 14:34:34;;;;;;;3.23;1.10;;;;;;;19.10;52.96;98931.52;124913;1102;104111;-79
2021/05/18 14:37:05;;;;;;;2.43;1.60;;;;;;;18.99;52.88;98936.23;124905;1102;103961;-78
2021/05/18 14:39:50;;;;;;;6.00;1.23;;;;;;;18.86;53.33;98923.22;124875;1101;104162;-79
2021/05/18 14:45:07;;;;;;;4.43;1.53;;;;;;;18.66;53.49;98920.98;124953;1099;104044;-77
2021/05/18 14:47:46;;;;;;;3.83;1.43;;;;;;;18.59;53.65;98919.39;125254;1101;104021;-77
2021/05/18 14:55:37;;;;;;;2.53;1.30;;;;;;;18.35;54.54;98909.30;124863;1102;103961;-77
2021/05/18 14:58:14;;;;;;;5.97;2.60;;;;;;;18.40;54.54;98907.41;125018;1099;104118;-77
2021/05/18 15:00:50;;;;;;;5.83;2.53;;;;;;;18.48;55.15;98908.11;124982;1099;104073;-78
2021/05/18 15:03:24;;;;;;;3.43;2.20;;;;;;;18.58;54.76;98904.35;125080;1099;104878;-77
2021/05/18 15:05:57;;;;;;;8.97;3.67;;;;;;;18.68;54.96;98908.56;125252;1101;104121;-78
2021/05/18 15:08:35;;;;;;;6.17;2.20;;;;;;;18.76;55.23;98910.15;125066;1102;108117;-79
2021/05/18 15:11:08;;;;;;;2.93;2.00;;;;;;;18.78;55.86;98909.22;125083;1099;102195;-78
2021/05/18 15:13:50;;;;;;;4.35;1.80;;;;;;;18.86;55.77;98906.41;125128;1099;101645;-79
2021/05/18 15:16:21;;;;;;;3.40;1.75;;;;;;;18.85;55.40;98902.00;125052;1099;103958;-79
2021/05/18 15:18:53;;;;;;;3.03;1.80;;;;;;;18.78;55.69;98903.03;125009;1099;104063;-78
2021/05/18 15:21:25;;;;;;;2.52;1.65;;;;;;;18.72;55.51;98908.49;125057;1101;103982;-79
2021/05/18 15:23:56;;;;;;;2.43;1.83;;;;;;;18.66;55.90;98915.67;125024;1099;103967;-82
2021/05/18 15:26:28;;;;;;;3.77;1.87;;;;;;;18.63;56.05;98915.73;124958;1099;103951;-78
2021/05/18 15:29:01;;;;;;;2.43;1.60;;;;;;;18.58;56.18;98914.98;125015;1099;106631;-78
2021/05/18 15:31:32;;;;;;;5.23;1.87;;;;;;;18.55;56.45;98930.12;125173;1102;103954;-79
2021/05/18 15:34:03;;;;;;;3.27;1.50;;;;;;;18.52;56.65;98928.39;125129;1102;102455;-78
2021/05/18 15:36:34;;;;;;;5.53;1.90;;;;;;;18.51;56.16;98923.98;125039;1100;104014;-78
2021/05/18 15:39:06;;;;;;;4.23;2.23;;;;;;;18.52;56.77;98927.53;125077;1099;103947;-78
2021/05/18 15:41:44;;;;;;;6.27;1.77;;;;;;;18.55;56.45;98930.98;125105;1100;104124;-78
2021/05/18 15:44:15;;;;;;;4.40;1.55;;;;;;;18.59;56.73;98926.47;125082;1101;104259;-78
2021/05/18 15:46:46;;;;;;;11.15;1.70;;;;;;;18.58;56.80;98930.91;125112;1099;104165;-78
2021/05/18 15:49:16;;;;;;;7.37;1.80;;;;;;;18.54;57.34;98921.25;125158;1099;103954;-78
2021/05/18 15:51:46;;;;;;;7.67;1.90;;;;;;;18.49;56.73;98928.45;125066;1102;103992;-79
2021/05/18 15:54:20;;;;;;;4.77;1.67;;;;;;;18.43;57.13;98931.25;125117;1099;104035;-78
2021/05/18 15:56:51;;;;;;;5.57;1.83;;;;;;;18.36;57.09;98943.79;125116;1099;104002;-77
2021/05/18 15:59:23;;;;;;;5.20;2.03;;;;;;;18.23;57.23;98937.87;125058;1099;103983;-77
2021/05/18 16:01:54;;;;;;;2.40;1.83;;;;;;;18.15;57.19;98950.39;125981;1099;103973;-78
2021/05/18 16:04:25;;;;;;;4.00;1.70;;;;;;;18.06;57.26;98955.88;125023;1102;104434;-78
2021/05/18 16:06:57;;;;;;;2.83;1.47;;;;;;;17.98;57.00;98956.03;125201;1099;103941;-78
2021/05/18 16:09:28;;;;;;;3.30;1.67;;;;;;;17.87;57.24;98955.33;125010;1102;103995;-79
2021/05/18 16:12:00;;;;;;;1.80;1.40;;;;;;;17.81;57.64;98950.14;124974;1100;104118;-79
2021/05/18 16:14:32;;;;;;;6.03;1.90;;;;;;;17.77;57.88;98944.03;125109;1099;103951;-78
2021/05/18 16:17:03;;;;;;;2.40;1.53;;;;;;;17.72;58.01;98943.24;125033;1099;103976;-78
2021/05/18 16:19:36;;;;;;;3.27;1.40;;;;;;;17.66;57.86;98946.01;125777;1099;103957;-79
2021/05/18 16:22:07;;;;;;;1.80;1.43;;;;;;;17.59;57.90;98942.56;125199;1099;104081;-79
2021/05/18 16:24:39;;;;;;;4.83;1.67;;;;;;;17.51;58.19;98940.05;126027;1098;104108;-78
2021/05/18 16:27:11;;;;;;;3.87;1.23;;;;;;;17.43;58.26;98944.62;126408;1099;103928;-78
2021/05/18 16:29:42;;;;;;;3.27;1.77;;;;;;;17.33;58.61;98951.00;125385;1102;104040;-75
2021/05/18 16:32:13;;;;;;;4.73;1.70;;;;;;;17.25;58.37;98948.47;125239;1099;104108;-76
2021/05/18 16:34:45;;;;;;;2.17;1.60;;;;;;;17.14;58.40;98960.99;125436;1099;103922;-76
2021/05/18 16:37:19;;;;;;;2.47;1.23;;;;;;;17.01;58.58;98958.53;125061;1102;103918;-77
2021/05/18 16:39:48;;;;;;;;;;;;;;;16.93;59.25;98967.52;125235;1099;103932;-77
2021/05/18 16:42:18;;;;;;;5.60;1.77;;;;;;;16.87;59.45;98960.52;125104;1099;103919;-78
2021/05/18 16:44:51;;;;;;;2.75;1.40;;;;;;;16.82;59.24;98954.39;125179;1099;103989;-77
2021/05/18 16:47:22;;;;;;;4.42;1.52;;;;;;;16.78;59.58;98961.52;125230;1099;103954;-77